createdAt,value
2023-03-05T00:00:29.241Z,78.08
2023-03-05T00:01:23.080Z,78.23
2023-03-05T00:02:09.596Z,78.17
2023-03-05T00:03:03.464Z,78.11
2023-03-05T00:03:50.011Z,78.1
2023-03-05T00:04:43.856Z,78.07
2023-03-05T00:05:30.343Z,77.98
2023-03-05T00:06:24.160Z,78.16
2023-03-05T00:07:10.675Z,78.08
2023-03-05T00:08:04.531Z,78.28
2023-03-05T00:08:51.012Z,78.28
2023-03-05T00:09:44.903Z,78.41
2023-03-05T00:10:31.403Z,78.44
2023-03-05T00:11:25.250Z,78.12
2023-03-05T00:12:11.696Z,78.15
2023-03-05T00:13:05.585Z,78.32
2023-03-05T00:13:52.008Z,78.14
2023-03-05T00:14:45.929Z,78.17
2023-03-05T00:15:32.448Z,78.18
2023-03-05T00:16:26.336Z,78.37
2023-03-05T00:17:12.772Z,78.22
2023-03-05T00:18:06.499Z,78.26
2023-03-05T00:18:53.115Z,78.26
2023-03-05T00:19:46.770Z,78.32
2023-03-05T00:20:33.423Z,78.3
2023-03-05T00:21:27.070Z,78.32
2023-03-05T00:22:13.802Z,78.22
2023-03-05T00:23:07.358Z,78.32
2023-03-05T00:23:54.173Z,78.28
2023-03-05T00:24:47.665Z,78.28
2023-03-05T00:25:34.558Z,78.49
2023-03-05T00:26:27.957Z,78.41
2023-03-05T00:27:14.867Z,78.46
2023-03-05T00:28:08.255Z,78.44
2023-03-05T00:28:55.203Z,78.48
2023-03-05T00:29:48.560Z,78.69
2023-03-05T00:30:35.551Z,78.62
2023-03-05T00:31:28.926Z,78.85
2023-03-05T00:32:15.913Z,78.65
2023-03-05T00:33:09.191Z,78.74
2023-03-05T00:33:56.171Z,78.73
2023-03-05T00:34:49.471Z,78.88
2023-03-05T00:35:36.526Z,78.95
2023-03-05T00:36:29.804Z,79.12
2023-03-05T00:37:16.853Z,79.33
2023-03-05T00:38:10.120Z,79.25
2023-03-05T00:38:57.109Z,79.27
2023-03-05T00:39:50.406Z,79.39
2023-03-05T00:40:37.467Z,79.44
2023-03-05T00:41:30.688Z,79.48
2023-03-05T00:42:17.699Z,79.57
2023-03-05T00:43:11.043Z,79.6
2023-03-05T00:43:58.009Z,79.62
2023-03-05T00:44:51.336Z,79.75
2023-03-05T00:45:38.256Z,79.7
2023-03-05T00:46:31.671Z,79.77
2023-03-05T00:47:18.738Z,79.73
2023-03-05T00:48:11.909Z,79.77
2023-03-05T00:48:58.899Z,79.77
2023-03-05T00:49:52.234Z,79.82
2023-03-05T00:50:39.288Z,79.82
2023-03-05T00:51:32.534Z,79.93
2023-03-05T00:52:19.522Z,79.97
2023-03-05T00:53:12.837Z,80.16
2023-03-05T00:53:59.787Z,80.21
2023-03-05T00:55:40.103Z,80.48
2023-03-05T00:56:33.565Z,80.66
2023-03-05T00:57:20.521Z,80.71
2023-03-05T00:58:13.900Z,80.78
2023-03-05T00:59:00.952Z,80.96
2023-03-05T00:59:54.232Z,81.03
2023-03-05T01:00:41.224Z,81.06
2023-03-05T01:01:34.601Z,81.01
2023-03-05T01:02:21.590Z,81.1
2023-03-05T01:03:14.891Z,81.17
2023-03-05T01:04:01.870Z,81.04
2023-03-05T01:04:55.286Z,81.18
2023-03-05T01:05:42.174Z,81.27
2023-03-05T01:06:35.624Z,81.12
2023-03-05T01:07:22.595Z,81.19
2023-03-05T01:08:16.064Z,81.23
2023-03-05T01:09:02.901Z,81.29
2023-03-05T01:09:56.411Z,81.23
2023-03-05T01:10:43.174Z,81.33
2023-03-05T01:11:36.755Z,81.35
2023-03-05T01:12:23.527Z,81.28
2023-03-05T01:13:17.127Z,81.37
2023-03-05T01:14:03.909Z,81.37
2023-03-05T01:14:57.515Z,81.44
2023-03-05T01:15:44.183Z,81.36
2023-03-05T01:16:37.844Z,81.31
2023-03-05T01:17:24.552Z,81.49
2023-03-05T01:18:18.217Z,81.49
2023-03-05T01:19:04.903Z,81.47
2023-03-05T01:19:58.619Z,81.53
2023-03-05T01:20:45.277Z,81.55
2023-03-05T01:21:39.013Z,81.54
2023-03-05T01:22:25.591Z,81.6
2023-03-05T01:23:19.322Z,81.63
2023-03-05T01:24:06.011Z,81.68
2023-03-05T01:24:59.616Z,81.72
2023-03-05T01:25:46.417Z,81.73
2023-03-05T01:26:39.995Z,81.74
2023-03-05T01:27:26.771Z,81.69
2023-03-05T01:28:20.355Z,81.74
2023-03-05T01:29:07.062Z,81.9
2023-03-05T01:30:00.745Z,81.8
2023-03-05T01:30:47.368Z,81.9
2023-03-05T01:31:41.127Z,81.98
2023-03-05T01:32:27.815Z,81.96
2023-03-05T01:33:21.588Z,82.02
2023-03-05T01:34:08.167Z,82.12
2023-03-05T01:35:01.952Z,82.07
2023-03-05T01:35:48.676Z,82.11
2023-03-05T01:36:42.300Z,82.15
2023-03-05T01:37:28.933Z,82.15
2023-03-05T01:38:22.644Z,82.24
2023-03-05T01:39:09.281Z,82.25
2023-03-05T01:40:02.999Z,82.35
2023-03-05T01:40:49.612Z,82.38
2023-03-05T01:41:43.403Z,82.41
2023-03-05T01:42:29.956Z,82.39
2023-03-05T01:43:23.794Z,82.54
2023-03-05T01:44:10.266Z,82.5
2023-03-05T01:45:04.231Z,82.59
2023-03-05T01:45:50.566Z,82.61
2023-03-05T01:47:30.846Z,82.79
2023-03-05T01:49:11.187Z,82.78
2023-03-05T01:50:05.144Z,82.85
2023-03-05T01:50:51.447Z,83.09
2023-03-05T01:51:45.428Z,83.2
2023-03-05T01:52:31.779Z,83.42
2023-03-05T01:53:25.737Z,83.76
2023-03-05T01:54:12.040Z,84.02
2023-03-05T01:55:06.057Z,84.26
2023-03-05T01:55:55.969Z,84.76
2023-03-05T01:56:46.341Z,85.1
2023-03-05T01:57:32.768Z,85.3
2023-03-05T01:58:26.647Z,85.57
2023-03-05T01:59:13.162Z,85.75
2023-03-05T02:00:06.973Z,85.9
2023-03-05T02:00:53.575Z,86.09
2023-03-05T02:01:47.243Z,86.21
2023-03-05T02:02:33.776Z,86.19
2023-03-05T02:03:27.592Z,86.23
2023-03-05T02:04:14.209Z,86.35
2023-03-05T02:05:07.853Z,86.43
2023-03-05T02:05:54.580Z,86.59
2023-03-05T02:06:48.148Z,86.95
2023-03-05T02:07:34.850Z,87.14
2023-03-05T02:08:28.458Z,87.38
2023-03-05T02:09:15.153Z,87.52
2023-03-05T02:10:08.746Z,87.73
2023-03-05T02:10:55.539Z,87.93
2023-03-05T02:11:49.038Z,88.11
2023-03-05T02:12:35.856Z,88.2
2023-03-05T02:13:29.359Z,88.33
2023-03-05T02:14:16.238Z,88.42
2023-03-05T02:15:09.627Z,88.57
2023-03-05T02:15:56.591Z,88.78
2023-03-05T02:16:50.032Z,88.81
2023-03-05T02:17:36.905Z,88.87
2023-03-05T02:18:30.294Z,88.86
2023-03-05T02:19:17.207Z,88.91
2023-03-05T02:20:10.588Z,88.91
2023-03-05T02:20:57.517Z,89.09
2023-03-05T02:21:50.884Z,89.22
2023-03-05T02:22:37.803Z,89.32
2023-03-05T02:23:31.159Z,89.38
2023-03-05T02:24:18.126Z,89.45
2023-03-05T02:25:11.490Z,89.44
2023-03-05T02:25:58.383Z,89.47
2023-03-05T02:26:51.816Z,89.5
2023-03-05T02:27:38.680Z,89.59
2023-03-05T02:28:32.156Z,89.62
2023-03-05T02:29:19.024Z,89.68
2023-03-05T02:30:12.513Z,89.74
2023-03-05T02:30:59.447Z,89.72
2023-03-05T02:31:53.089Z,89.71
2023-03-05T02:32:39.751Z,89.79
2023-03-05T02:33:33.134Z,89.75
2023-03-05T02:34:20.072Z,89.76
2023-03-05T02:35:13.456Z,89.81
2023-03-05T02:36:00.482Z,89.85
2023-03-05T02:36:53.813Z,89.79
2023-03-05T02:37:40.809Z,89.76
2023-03-05T02:38:34.122Z,89.79
2023-03-05T02:39:21.164Z,89.81
2023-03-05T02:40:14.421Z,89.87
2023-03-05T02:41:01.539Z,89.88
2023-03-05T02:41:54.712Z,89.86
2023-03-05T02:42:41.915Z,89.9
2023-03-05T02:43:35.026Z,89.87
2023-03-05T02:44:22.368Z,89.88
2023-03-05T02:45:15.319Z,89.91
2023-03-05T02:46:02.788Z,89.91
2023-03-05T02:46:55.642Z,89.9
2023-03-05T02:47:43.170Z,89.81
2023-03-05T02:48:35.908Z,89.86
2023-03-05T02:49:23.621Z,89.92
2023-03-05T02:50:16.226Z,90.03
2023-03-05T02:51:03.963Z,90.03
2023-03-05T02:51:56.555Z,89.99
2023-03-05T02:52:44.426Z,89.99
2023-03-05T02:53:36.840Z,90
2023-03-05T02:54:24.841Z,89.99
2023-03-05T02:55:17.116Z,89.93
2023-03-05T02:56:05.232Z,89.93
2023-03-05T02:56:57.422Z,89.97
2023-03-05T02:57:45.543Z,89.98
2023-03-05T02:58:37.757Z,89.97
2023-03-05T02:59:25.876Z,89.94
2023-03-05T03:00:18.055Z,89.95
2023-03-05T03:02:13.399Z,90.01
2023-03-05T03:02:46.536Z,89.9
2023-03-05T03:04:26.836Z,90.01
2023-03-05T03:05:18.976Z,90.01
2023-03-05T03:06:07.085Z,90.04
2023-03-05T03:06:59.273Z,89.93
2023-03-05T03:07:47.422Z,89.86
2023-03-05T03:08:39.568Z,89.93
2023-03-05T03:09:27.704Z,89.98
2023-03-05T03:10:19.855Z,90.08
2023-03-05T03:11:08.150Z,90.13
2023-03-05T03:12:00.180Z,90.2
2023-03-05T03:12:48.489Z,90.27
2023-03-05T03:13:40.454Z,90.33
2023-03-05T03:14:28.883Z,90.43
2023-03-05T03:15:20.757Z,90.6
2023-03-05T03:16:09.336Z,90.67
2023-03-05T03:17:01.204Z,90.85
2023-03-05T03:17:49.652Z,91
2023-03-05T03:18:41.375Z,91.18
2023-03-05T03:19:29.957Z,91.3
2023-03-05T03:20:21.659Z,91.42
2023-03-05T03:21:10.279Z,91.36
2023-03-05T03:22:01.983Z,91.49
2023-03-05T03:22:50.517Z,91.67
2023-03-05T03:23:42.284Z,91.78
2023-03-05T03:24:30.824Z,91.81
2023-03-05T03:25:22.669Z,91.87
2023-03-05T03:26:11.217Z,92.01
2023-03-05T03:27:02.897Z,92.19
2023-03-05T03:27:51.538Z,92.26
2023-03-05T03:28:43.173Z,92.37
2023-03-05T03:29:31.887Z,92.42
2023-03-05T03:30:23.482Z,92.45
2023-03-05T03:31:12.246Z,92.47
2023-03-05T03:32:03.819Z,92.51
2023-03-05T03:32:52.471Z,92.54
2023-03-05T03:33:44.085Z,92.61
2023-03-05T03:34:32.785Z,92.71
2023-03-05T03:35:24.403Z,92.74
2023-03-05T03:36:13.168Z,92.83
2023-03-05T03:37:04.718Z,92.94
2023-03-05T03:37:53.474Z,92.96
2023-03-05T03:38:45.005Z,92.98
2023-03-05T03:39:33.820Z,93.06
2023-03-05T03:40:25.335Z,93.15
2023-03-05T03:41:14.115Z,93.21
2023-03-05T03:42:05.621Z,93.19
2023-03-05T03:42:54.492Z,93.19
2023-03-05T03:44:34.743Z,93.28
2023-03-05T03:45:26.250Z,93.31
2023-03-05T03:46:15.010Z,93.39
2023-03-05T03:47:06.520Z,93.42
2023-03-05T03:47:55.289Z,93.44
2023-03-05T03:48:46.818Z,93.49
2023-03-05T03:49:35.653Z,93.43
2023-03-05T03:50:27.158Z,93.42
2023-03-05T03:51:15.951Z,93.46
2023-03-05T03:52:07.430Z,93.55
2023-03-05T03:52:56.339Z,93.5
2023-03-05T03:53:47.712Z,93.44
2023-03-05T03:54:36.701Z,93.51
2023-03-05T03:55:28.026Z,93.48
2023-03-05T03:56:17.141Z,93.44
2023-03-05T03:57:08.306Z,93.49
2023-03-05T03:57:57.581Z,93.43
2023-03-05T03:58:48.634Z,93.35
2023-03-05T03:59:38.050Z,93.36
2023-03-05T04:00:28.911Z,93.35
2023-03-05T04:01:18.455Z,93.32
2023-03-05T04:02:09.276Z,93.24
2023-03-05T04:02:58.807Z,93.2
2023-03-05T04:03:49.523Z,93.1
2023-03-05T04:04:39.247Z,93.09
2023-03-05T04:05:29.810Z,93.12
2023-03-05T04:06:19.615Z,93.14
2023-03-05T04:07:10.133Z,93.14
2023-03-05T04:07:59.969Z,93.14
2023-03-05T04:08:50.429Z,93.15
2023-03-05T04:09:40.380Z,93.19
2023-03-05T04:10:30.742Z,93.23
2023-03-05T04:11:20.860Z,93.18
2023-03-05T04:12:11.039Z,93.06
2023-03-05T04:13:01.160Z,93.03
2023-03-05T04:13:51.384Z,93.04
2023-03-05T04:14:41.469Z,93.03
2023-03-05T04:15:31.663Z,93.11
2023-03-05T04:16:21.829Z,93.09
2023-03-05T04:17:11.929Z,93.17
2023-03-05T04:18:02.119Z,93.25
2023-03-05T04:18:52.257Z,93.27
2023-03-05T04:19:42.547Z,93.22
2023-03-05T04:20:32.535Z,93.24
2023-03-05T04:21:22.914Z,93.22
2023-03-05T04:22:12.829Z,93.24
2023-03-05T04:23:03.378Z,93.19
2023-03-05T04:23:53.150Z,93.13
2023-03-05T04:24:43.717Z,93.06
2023-03-05T04:25:33.440Z,93.06
2023-03-05T04:26:24.087Z,93.09
2023-03-05T04:27:13.754Z,93
2023-03-05T04:28:04.373Z,93.01
2023-03-05T04:28:54.040Z,92.95
2023-03-05T04:29:44.667Z,92.95
2023-03-05T04:30:34.352Z,92.95
2023-03-05T04:31:25.225Z,92.97
2023-03-05T04:32:14.728Z,92.98
2023-03-05T04:33:05.468Z,93.01
2023-03-05T04:33:54.945Z,93
2023-03-05T04:34:45.773Z,92.99
2023-03-05T04:35:35.246Z,92.99
2023-03-05T04:36:26.371Z,93.01
2023-03-05T04:37:15.539Z,92.97
2023-03-05T04:38:06.547Z,92.92
2023-03-05T04:38:55.839Z,92.91
2023-03-05T04:39:46.835Z,92.79
2023-03-05T04:40:36.140Z,92.75
2023-03-05T04:41:27.144Z,92.68
2023-03-05T04:42:16.444Z,92.43
2023-03-05T04:43:07.497Z,92.34
2023-03-05T04:43:56.755Z,92.26
2023-03-05T04:44:47.870Z,92.21
2023-03-05T04:45:37.029Z,92.26
2023-03-05T04:46:28.346Z,92.29
2023-03-05T04:47:17.359Z,92.3
2023-03-05T04:48:08.703Z,92.29
2023-03-05T04:48:57.657Z,92.22
2023-03-05T04:49:49.123Z,92.21
2023-03-05T04:50:37.968Z,92.2
2023-03-05T04:51:29.554Z,92.17
2023-03-05T04:52:18.223Z,92.16
2023-03-05T04:53:09.927Z,92.12
2023-03-05T04:53:58.551Z,92.15
2023-03-05T04:54:50.367Z,92.13
2023-03-05T04:55:38.829Z,92.04
2023-03-05T04:56:30.776Z,91.65
2023-03-05T04:57:19.137Z,91.42
2023-03-05T04:58:11.184Z,91.31
2023-03-05T04:58:59.499Z,91.2
2023-03-05T04:59:51.604Z,91.06
2023-03-05T05:00:39.769Z,91.01
2023-03-05T05:01:31.885Z,91.08
2023-03-05T05:02:20.141Z,91.14
2023-03-05T05:03:12.260Z,91.06
2023-03-05T05:04:00.549Z,91.15
2023-03-05T05:04:52.494Z,91.16
2023-03-05T05:05:40.838Z,91.25
2023-03-05T05:06:32.812Z,91.37
2023-03-05T05:07:21.178Z,91.51
2023-03-05T05:08:13.227Z,91.65
2023-03-05T05:09:01.587Z,91.52
2023-03-05T05:09:53.583Z,91.51
2023-03-05T05:10:41.943Z,91.63
2023-03-05T05:11:34.027Z,91.75
2023-03-05T05:12:22.297Z,91.9
2023-03-05T05:13:14.432Z,92.05
2023-03-05T05:14:02.673Z,92.17
2023-03-05T05:14:54.789Z,92.3
2023-03-05T05:15:43.077Z,92.47
2023-03-05T05:16:35.341Z,92.56
2023-03-05T05:17:23.442Z,92.65
2023-03-05T05:18:15.624Z,92.75
2023-03-05T05:19:03.870Z,92.86
2023-03-05T05:19:56.088Z,92.9
2023-03-05T05:20:44.219Z,92.95
2023-03-05T05:21:36.460Z,93.04
2023-03-05T05:22:24.637Z,93.06
2023-03-05T05:23:16.881Z,93.13
2023-03-05T05:24:05.060Z,93.19
2023-03-05T05:24:57.337Z,93.25
2023-03-05T05:25:45.445Z,93.3
2023-03-05T05:26:37.726Z,93.36
2023-03-05T05:27:25.768Z,93.45
2023-03-05T05:28:18.098Z,93.52
2023-03-05T05:29:06.169Z,93.61
2023-03-05T05:29:58.469Z,93.58
2023-03-05T05:30:46.559Z,93.58
2023-03-05T05:31:38.852Z,93.59
2023-03-05T05:32:26.942Z,93.64
2023-03-05T05:33:19.188Z,93.64
2023-03-05T05:34:07.304Z,93.61
2023-03-05T05:34:59.679Z,93.61
2023-03-05T05:35:47.743Z,93.64
2023-03-05T05:36:40.109Z,93.61
2023-03-05T05:37:27.984Z,93.58
2023-03-05T05:38:20.469Z,93.62
2023-03-05T05:39:08.344Z,93.61
2023-03-05T05:40:00.851Z,93.56
2023-03-05T05:40:48.714Z,93.54
2023-03-05T05:41:41.137Z,93.47
2023-03-05T05:42:29.065Z,93.52
2023-03-05T05:43:21.476Z,93.5
2023-03-05T05:44:09.410Z,93.55
2023-03-05T05:45:01.868Z,93.64
2023-03-05T05:45:49.829Z,93.67
2023-03-05T05:46:42.398Z,93.72
2023-03-05T05:47:30.106Z,93.66
2023-03-05T05:48:22.649Z,93.59
2023-03-05T05:49:10.468Z,93.52
2023-03-05T05:50:03.080Z,93.34
2023-03-05T05:50:50.834Z,93.32
2023-03-05T05:51:43.474Z,93.34
2023-03-05T05:52:31.147Z,93.29
2023-03-05T05:53:23.863Z,93.36
2023-03-05T05:54:11.462Z,93.38
2023-03-05T05:55:04.186Z,93.45
2023-03-05T05:55:51.768Z,93.47
2023-03-05T05:56:44.544Z,93.44
2023-03-05T05:57:32.038Z,93.45
2023-03-05T05:58:24.844Z,93.47
2023-03-05T05:59:12.342Z,93.4
2023-03-05T06:00:05.257Z,93.33
2023-03-05T06:00:55.240Z,93.28
2023-03-05T06:01:45.853Z,93.14
2023-03-05T06:02:32.947Z,93.09
2023-03-05T06:03:26.216Z,92.78
2023-03-05T06:04:13.237Z,92.66
2023-03-05T06:05:06.385Z,92.49
2023-03-05T06:05:53.559Z,92.44
2023-03-05T06:06:46.661Z,92.34
2023-03-05T06:07:33.863Z,92.24
2023-03-05T06:08:27.023Z,92.31
2023-03-05T06:09:14.144Z,92.23
2023-03-05T06:10:07.480Z,92.02
2023-03-05T06:10:54.469Z,91.9
2023-03-05T06:11:47.832Z,91.82
2023-03-05T06:12:35.904Z,91.74
2023-03-05T06:12:35.917Z,91.74
2023-03-05T06:12:35.932Z,91.74
2023-03-05T06:12:35.951Z,91.74
2023-03-05T06:12:35.958Z,91.74
2023-03-05T06:13:28.260Z,91.7
2023-03-05T06:14:15.070Z,91.7
2023-03-05T06:15:08.603Z,91.48
2023-03-05T06:15:55.362Z,91.37
2023-03-05T06:16:49.182Z,91.32
2023-03-05T06:17:35.683Z,91.13
2023-03-05T06:18:29.416Z,91.13
2023-03-05T06:19:15.995Z,90.98
2023-03-05T06:20:09.822Z,90.93
2023-03-05T06:20:56.287Z,90.97
2023-03-05T06:21:50.260Z,90.92
2023-03-05T06:22:36.645Z,90.83
2023-03-05T06:23:30.602Z,90.81
2023-03-05T06:24:16.913Z,90.89
2023-03-05T06:25:10.963Z,90.93
2023-03-05T06:25:57.193Z,91
2023-03-05T06:26:51.255Z,90.99
2023-03-05T06:27:37.500Z,91
2023-03-05T06:28:31.568Z,90.68
2023-03-05T06:29:17.855Z,90.57
2023-03-05T06:30:11.856Z,90.54
2023-03-05T06:30:58.175Z,90.53
2023-03-05T06:31:52.214Z,90.53
2023-03-05T06:32:38.456Z,90.55
2023-03-05T06:33:32.493Z,90.54
2023-03-05T06:34:18.727Z,90.48
2023-03-05T06:35:12.784Z,90.48
2023-03-05T06:35:59.109Z,90.44
2023-03-05T06:36:53.117Z,90.23
2023-03-05T06:37:39.366Z,90.18
2023-03-05T06:38:33.515Z,90.05
2023-03-05T06:39:19.678Z,90.05
2023-03-05T06:40:13.901Z,90.12
2023-03-05T06:40:59.957Z,90.08
2023-03-05T06:41:54.309Z,89.91
2023-03-05T06:42:40.294Z,89.86
2023-03-05T06:43:34.739Z,89.91
2023-03-05T06:44:20.566Z,89.85
2023-03-05T06:45:15.189Z,89.73
2023-03-05T06:46:00.932Z,89.57
2023-03-05T06:46:55.569Z,89.56
2023-03-05T06:47:41.200Z,89.47
2023-03-05T06:48:35.991Z,89.33
2023-03-05T06:49:21.483Z,89.38
2023-03-05T06:50:16.321Z,88.94
2023-03-05T06:51:01.771Z,89.11
2023-03-05T06:51:56.608Z,89.09
2023-03-05T06:52:42.079Z,88.83
2023-03-05T06:53:36.947Z,88.85
2023-03-05T06:54:22.372Z,88.78
2023-03-05T06:55:17.240Z,88.67
2023-03-05T06:56:02.691Z,88.51
2023-03-05T06:56:57.525Z,88.68
2023-03-05T06:57:42.959Z,88.65
2023-03-05T06:58:38.028Z,88.3
2023-03-05T06:59:23.277Z,87.8
2023-03-05T07:00:18.336Z,88.1
2023-03-05T07:01:03.607Z,88.39
2023-03-05T07:01:58.590Z,88.31
2023-03-05T07:02:43.942Z,88.4
2023-03-05T07:03:38.841Z,88.4
2023-03-05T07:04:24.433Z,88.42
2023-03-05T07:05:19.212Z,88.23
2023-03-05T07:06:04.471Z,87.93
2023-03-05T07:06:59.481Z,87.65
2023-03-05T07:07:44.782Z,87.63
2023-03-05T07:08:39.881Z,87.68
2023-03-05T07:09:25.082Z,87.54
2023-03-05T07:10:20.298Z,87.57
2023-03-05T07:11:05.385Z,87.66
2023-03-05T07:12:00.735Z,87.73
2023-03-05T07:12:45.693Z,87.66
2023-03-05T07:13:41.132Z,87.7
2023-03-05T07:14:25.974Z,87.79
2023-03-05T07:15:21.522Z,87.73
2023-03-05T07:16:06.389Z,87.87
2023-03-05T07:17:01.920Z,87.9
2023-03-05T07:17:46.588Z,88
2023-03-05T07:18:42.275Z,87.75
2023-03-05T07:19:26.869Z,87.62
2023-03-05T07:20:22.729Z,87.48
2023-03-05T07:21:07.181Z,87.27
2023-03-05T07:22:03.210Z,87.5
2023-03-05T07:22:47.467Z,87.62
2023-03-05T07:23:43.528Z,88.04
2023-03-05T07:24:27.773Z,88.36
2023-03-05T07:25:23.806Z,88.5
2023-03-05T07:26:08.100Z,88.73
2023-03-05T07:27:04.139Z,88.97
2023-03-05T07:27:48.380Z,88.99
2023-03-05T07:28:44.465Z,89.28
2023-03-05T07:29:28.701Z,89.36
2023-03-05T07:30:24.735Z,89.44
2023-03-05T07:31:09.093Z,89.67
2023-03-05T07:32:05.079Z,89.78
2023-03-05T07:32:49.307Z,89.93
2023-03-05T07:33:45.343Z,89.88
2023-03-05T07:34:29.620Z,89.95
2023-03-05T07:35:25.697Z,90.15
2023-03-05T07:36:09.970Z,90.14
2023-03-05T07:37:05.988Z,90.11
2023-03-05T07:37:50.357Z,90.12
2023-03-05T07:38:46.304Z,90.03
2023-03-05T07:39:30.679Z,89.93
2023-03-05T07:40:26.710Z,89.89
2023-03-05T07:41:10.987Z,89.92
2023-03-05T07:42:07.158Z,90.01
2023-03-05T07:42:51.244Z,90
2023-03-05T07:43:47.468Z,90.12
2023-03-05T07:44:31.560Z,90.26
2023-03-05T07:45:27.839Z,90.33
2023-03-05T07:46:11.895Z,89.89
2023-03-05T07:47:08.251Z,89.58
2023-03-05T07:47:52.640Z,89.53
2023-03-05T07:48:48.583Z,89.11
2023-03-05T07:49:32.460Z,89.04
2023-03-05T07:50:28.979Z,89.12
2023-03-05T07:51:12.773Z,89.04
2023-03-05T07:52:09.345Z,89.03
2023-03-05T07:52:53.050Z,88.56
2023-03-05T07:53:49.624Z,88.94
2023-03-05T07:54:33.358Z,89.05
2023-03-05T07:55:29.987Z,88.65
2023-03-05T07:56:13.683Z,88.33
2023-03-05T07:57:10.327Z,88.15
2023-03-05T07:57:53.949Z,88.27
2023-03-05T07:58:50.696Z,88.35
2023-03-05T07:59:34.267Z,88.16
2023-03-05T08:00:31.074Z,87.89
2023-03-05T08:01:14.535Z,87.67
2023-03-05T08:02:11.429Z,87.64
2023-03-05T08:02:54.896Z,87.71
2023-03-05T08:03:51.820Z,87.61
2023-03-05T08:04:35.145Z,87.13
2023-03-05T08:05:32.146Z,86.81
2023-03-05T08:06:15.430Z,86.88
2023-03-05T08:07:12.437Z,86.9
2023-03-05T08:07:55.740Z,86.9
2023-03-05T08:08:52.732Z,86.69
2023-03-05T08:09:36.046Z,86.6
2023-03-05T08:10:33.031Z,86.56
2023-03-05T08:11:16.356Z,86.73
2023-03-05T08:12:13.262Z,86.66
2023-03-05T08:12:56.635Z,86.18
2023-03-05T08:13:53.581Z,86.21
2023-03-05T08:14:36.942Z,86.64
2023-03-05T08:15:34.025Z,85.65
2023-03-05T08:16:17.339Z,85.27
2023-03-05T08:17:14.332Z,85.58
2023-03-05T08:17:57.523Z,85.54
2023-03-05T08:18:54.639Z,85.56
2023-03-05T08:19:37.845Z,85.76
2023-03-05T08:20:35.084Z,85.51
2023-03-05T08:21:18.122Z,85.45
2023-03-05T08:22:15.454Z,85.74
2023-03-05T08:22:58.433Z,85.92
2023-03-05T08:23:55.880Z,85.05
2023-03-05T08:24:38.719Z,84.89
2023-03-05T08:25:36.288Z,84.81
2023-03-05T08:26:19.023Z,84.9
2023-03-05T08:27:16.717Z,85.06
2023-03-05T08:27:59.355Z,84.75
2023-03-05T08:28:57.126Z,84.7
2023-03-05T08:29:39.672Z,85.08
2023-03-05T08:30:37.519Z,85.04
2023-03-05T08:31:20.059Z,84.97
2023-03-05T08:32:17.977Z,85.04
2023-03-05T08:33:00.259Z,85.13
2023-03-05T08:33:58.235Z,85.35
2023-03-05T08:34:40.569Z,85.69
2023-03-05T08:35:38.580Z,85.91
2023-03-05T08:36:20.866Z,86.03
2023-03-05T08:37:18.847Z,86.38
2023-03-05T08:38:01.158Z,86.49
2023-03-05T08:38:59.294Z,87.02
2023-03-05T08:39:41.495Z,87.37
2023-03-05T08:40:39.659Z,87.55
2023-03-05T08:41:21.786Z,87.73
2023-03-05T08:42:19.993Z,88.09
2023-03-05T08:43:02.104Z,88.12
2023-03-05T08:44:00.395Z,88.13
2023-03-05T08:44:42.387Z,88.32
2023-03-05T08:45:40.764Z,88.57
2023-03-05T08:46:22.746Z,88.6
2023-03-05T08:47:21.158Z,88.77
2023-03-05T08:48:03.001Z,88.88
2023-03-05T08:49:01.588Z,89.12
2023-03-05T08:49:43.289Z,89.33
2023-03-05T08:50:41.924Z,89.25
2023-03-05T08:51:23.618Z,88.77
2023-03-05T08:52:22.304Z,88.51
2023-03-05T08:53:03.896Z,88.91
2023-03-05T08:54:02.646Z,88.87
2023-03-05T08:54:44.210Z,87.93
2023-03-05T08:55:44.231Z,88
2023-03-05T08:56:24.544Z,87.53
2023-03-05T08:57:23.346Z,87.26
2023-03-05T08:58:04.801Z,86.93
2023-03-05T08:59:03.748Z,86.29
2023-03-05T08:59:45.077Z,86.31
2023-03-05T09:00:43.968Z,86.77
2023-03-05T09:01:25.461Z,86.71
2023-03-05T09:02:24.260Z,86.57
2023-03-05T09:03:05.757Z,86.11
2023-03-05T09:04:04.637Z,86.19
2023-03-05T09:04:45.990Z,86.51
2023-03-05T09:05:44.964Z,86.36
2023-03-05T09:06:26.289Z,86.83
2023-03-05T09:07:25.302Z,87.11
2023-03-05T09:08:06.624Z,87.38
2023-03-05T09:09:05.652Z,87.73
2023-03-05T09:09:46.893Z,88.05
2023-03-05T09:10:45.984Z,88.23
2023-03-05T09:11:27.193Z,88.34
2023-03-05T09:12:26.310Z,88.68
2023-03-05T09:13:07.493Z,88.77
2023-03-05T09:14:06.855Z,88.86
2023-03-05T09:14:47.823Z,88.95
2023-03-05T09:15:47.208Z,89.1
2023-03-05T09:16:28.141Z,89.08
2023-03-05T09:17:27.568Z,89.03
2023-03-05T09:18:08.436Z,89.13
2023-03-05T09:19:07.956Z,88.64
2023-03-05T09:19:48.738Z,88.8
2023-03-05T09:20:48.306Z,88.96
2023-03-05T09:21:29.040Z,88.91
2023-03-05T09:22:28.759Z,89.02
2023-03-05T09:23:09.349Z,88.91
2023-03-05T09:24:09.163Z,88.89
2023-03-05T09:24:49.643Z,89
2023-03-05T09:25:49.582Z,89.18
2023-03-05T09:26:29.936Z,89.19
2023-03-05T09:27:29.832Z,89.27
2023-03-05T09:28:10.247Z,89.43
2023-03-05T09:29:10.183Z,89.2
2023-03-05T09:29:50.591Z,88.95
2023-03-05T09:30:50.533Z,89.03
2023-03-05T09:31:30.952Z,89.01
2023-03-05T09:32:31.021Z,88.12
2023-03-05T09:33:11.184Z,88.45
2023-03-05T09:34:11.322Z,88.02
2023-03-05T09:34:51.476Z,87.41
2023-03-05T09:35:51.793Z,87.22
2023-03-05T09:36:31.752Z,87.19
2023-03-05T09:37:32.116Z,87.38
2023-03-05T09:38:12.069Z,87.28
2023-03-05T09:39:12.454Z,87.21
2023-03-05T09:39:52.385Z,86.8
2023-03-05T09:40:52.875Z,86.14
2023-03-05T09:41:32.682Z,86.07
2023-03-05T09:42:33.256Z,86.14
2023-03-05T09:43:13.041Z,86.14
2023-03-05T09:44:13.554Z,87.03
2023-03-05T09:44:53.365Z,86.78
2023-03-05T09:45:54.010Z,86.73
2023-03-05T09:46:33.581Z,85.82
2023-03-05T09:47:34.185Z,85.85
2023-03-05T09:48:13.866Z,85.69
2023-03-05T09:49:14.503Z,85.95
2023-03-05T09:49:54.163Z,84.43
2023-03-05T09:50:54.735Z,83.91
2023-03-05T09:51:34.471Z,83.99
2023-03-05T09:52:35.064Z,83.65
2023-03-05T09:53:14.785Z,83.38
2023-03-05T09:54:15.354Z,83.42
2023-03-05T09:54:55.084Z,82.56
2023-03-05T09:55:55.693Z,82.81
2023-03-05T09:56:35.387Z,82.71
2023-03-05T09:57:36.017Z,83.34
2023-03-05T09:58:15.709Z,83.25
2023-03-05T09:59:16.397Z,83.13
2023-03-05T09:59:55.978Z,82.39
2023-03-05T10:00:56.788Z,82.24
2023-03-05T10:01:36.291Z,81.57
2023-03-05T10:02:37.059Z,80.7
2023-03-05T10:03:16.618Z,81.39
2023-03-05T10:04:17.506Z,80.8
2023-03-05T10:04:56.884Z,80.81
2023-03-05T10:05:57.773Z,80.66
2023-03-05T10:06:37.185Z,81.08
2023-03-05T10:07:38.143Z,81.95
2023-03-05T10:08:17.502Z,82.2
2023-03-05T10:09:18.482Z,81.56
2023-03-05T10:09:57.823Z,81.57
2023-03-05T10:10:58.842Z,82.16
2023-03-05T10:11:38.177Z,82.11
2023-03-05T10:12:39.220Z,82.76
2023-03-05T10:13:18.543Z,83.24
2023-03-05T10:14:19.470Z,83.93
2023-03-05T10:14:58.902Z,84.24
2023-03-05T10:15:59.871Z,83.72
2023-03-05T10:16:39.293Z,84.01
2023-03-05T10:17:40.206Z,84.23
2023-03-05T10:18:19.597Z,84
2023-03-05T10:19:20.480Z,84.3
2023-03-05T10:19:59.932Z,84.19
2023-03-05T10:21:00.782Z,84.26
2023-03-05T10:21:40.460Z,84.58
2023-03-05T10:22:41.183Z,84.94
2023-03-05T10:23:20.677Z,84.9
2023-03-05T10:24:21.506Z,84.63
2023-03-05T10:25:00.994Z,84.53
2023-03-05T10:26:01.848Z,83.61
2023-03-05T10:26:41.328Z,82.83
2023-03-05T10:27:42.198Z,82.75
2023-03-05T10:28:21.734Z,83.1
2023-03-05T10:29:22.615Z,83.36
2023-03-05T10:30:02.103Z,83.94
2023-03-05T10:31:02.942Z,81.77
2023-03-05T10:31:42.531Z,81.67
2023-03-05T10:32:43.378Z,80.42
2023-03-05T10:33:22.833Z,80.98
2023-03-05T10:34:23.611Z,80.59
2023-03-05T10:35:03.159Z,80.69
2023-03-05T10:36:03.989Z,79.97
2023-03-05T10:36:43.423Z,80.19
2023-03-05T10:37:44.330Z,79.28
2023-03-05T10:38:23.725Z,79.63
2023-03-05T10:39:24.590Z,80.05
2023-03-05T10:40:04.032Z,80.75
2023-03-05T10:41:04.980Z,79.58
2023-03-05T10:41:44.336Z,80.19
2023-03-05T10:42:45.245Z,80.73
2023-03-05T10:43:24.650Z,80.87
2023-03-05T10:44:25.534Z,80.32
2023-03-05T10:45:04.956Z,80.63
2023-03-05T10:46:05.916Z,80.47
2023-03-05T10:46:45.271Z,80.26
2023-03-05T10:47:46.360Z,80.08
2023-03-05T10:48:25.572Z,79.83
2023-03-05T10:49:26.659Z,79.02
2023-03-05T10:50:05.865Z,78.98